< Cyclone 200815 2008 Season Cyclone 200822 >
Cyclone 200820 (Pancho)
General InformationTrack Information on Google MapsDetailed Wind InformationList of All Images || ResourceGoogle EarthGE AnimationAtom FeedGeoJSON
Detalied Best Track (Time Zone = UTC)
Year Month Day Hour Lat. Long. Pressure (hPa) Wind (kt) Class Image Chart
2008 3 23 06 -11.9 102.0 1000 20 2 Image --
2008 3 23 12 -12.1 102.2 1000 20 2 Image --
2008 3 23 18 -12.2 102.4 1000 25 2 Image --
2008 3 24 00 -12.4 102.6 998 25 2 Image --
2008 3 24 06 -12.6 103.1 998 25 2 Image --
2008 3 24 12 -13.0 103.5 998 30 2 Image --
2008 3 24 18 -13.3 103.9 996 30 2 Image --
2008 3 25 00 -13.6 104.2 990 35 3 Image --
2008 3 25 06 -14.0 104.2 982 50 4 Image --
2008 3 25 12 -14.5 104.1 982 50 4 Image --
2008 3 25 18 -14.8 104.0 982 50 4 Image --
2008 3 26 00 -15.4 104.3 974 55 4 Image --
2008 3 26 06 -16.1 104.7 968 75 5 Image --
2008 3 26 12 -17.1 105.1 940 90 5 Image --
2008 3 26 18 -18.1 105.4 940 90 5 Image --
2008 3 27 00 -19.2 105.8 934 95 5 Image --
2008 3 27 06 -20.5 106.2 940 90 5 Image --
2008 3 27 12 -21.5 106.8 952 85 5 Image --
2008 3 27 18 -22.6 107.4 964 75 5 Image --
2008 3 28 00 -23.5 108.1 974 60 4 Image --
2008 3 28 06 -24.2 108.9 982 50 4 Image --
2008 3 28 12 -24.8 109.3 986 45 3 Image --
2008 3 28 18 -24.9 110.0 990 40 3 Image --
2008 3 29 00 -24.9 110.9 996 35 3 Image --
2008 3 29 06 -25.2 111.3 996 35 3 Image --
2008 3 29 12 -25.4 111.6 996 30 2 Image --
2008 3 29 18 -25.6 111.4 996 30 2 Image --
2008 3 30 00 -26.0 111.3 998 25 2 Image --
2008 3 30 06 -26.1 111.1 998 25 2 Image --
< Cyclone 200815 2008 Season Cyclone 200822 >

Help